createdAt,value
2022-10-24T00:01:50.494Z,17.90
2022-10-24T00:04:19.042Z,17.90
2022-10-24T00:06:47.417Z,17.90
2022-10-24T00:09:15.637Z,18.00
2022-10-24T00:11:46.196Z,18.00
2022-10-24T00:14:14.456Z,18.00
2022-10-24T00:16:44.070Z,18.10
2022-10-24T00:19:12.287Z,18.00
2022-10-24T00:21:41.770Z,18.00
2022-10-24T00:24:10.331Z,18.00
2022-10-24T00:26:39.008Z,18.00
2022-10-24T00:29:07.174Z,18.00
2022-10-24T00:31:36.032Z,18.00
2022-10-24T00:34:06.486Z,18.00
2022-10-24T00:36:34.701Z,18.00
2022-10-24T00:39:03.097Z,18.00
2022-10-24T00:41:34.887Z,17.90
2022-10-24T00:44:19.890Z,18.00
2022-10-24T00:46:51.344Z,18.00
2022-10-24T00:49:25.381Z,18.00
2022-10-24T00:51:58.797Z,18.00
2022-10-24T00:54:27.559Z,18.00
2022-10-24T00:57:05.149Z,17.90
2022-10-24T00:59:37.204Z,17.90
2022-10-24T01:02:06.749Z,17.80
2022-10-24T01:04:37.638Z,17.80
2022-10-24T01:07:22.423Z,17.80
2022-10-24T01:10:19.655Z,17.70
2022-10-24T01:12:56.545Z,17.80
2022-10-24T01:15:31.626Z,17.80
2022-10-24T01:18:04.959Z,17.80
2022-10-24T01:20:55.572Z,17.80
2022-10-24T01:23:58.857Z,17.80
2022-10-24T01:26:53.043Z,17.80
2022-10-24T01:29:33.680Z,17.80
2022-10-24T01:32:12.047Z,17.70
2022-10-24T01:34:44.971Z,17.70
2022-10-24T01:37:20.753Z,17.70
2022-10-24T01:39:52.379Z,17.70
2022-10-24T01:42:25.261Z,17.70
2022-10-24T01:44:57.559Z,17.70
2022-10-24T01:47:29.043Z,17.70
2022-10-24T01:50:02.811Z,17.70
2022-10-24T01:52:34.245Z,17.70
2022-10-24T01:55:03.226Z,17.70
2022-10-24T01:57:33.013Z,17.70
2022-10-24T02:00:03.364Z,17.70
2022-10-24T02:02:35.737Z,17.70
2022-10-24T02:05:10.527Z,17.70
2022-10-24T02:07:40.467Z,17.70
2022-10-24T02:10:12.633Z,17.70
2022-10-24T02:12:46.005Z,17.70
2022-10-24T02:15:22.743Z,17.70
2022-10-24T02:17:51.248Z,17.70
2022-10-24T02:20:21.366Z,17.70
2022-10-24T02:22:55.693Z,17.70
2022-10-24T02:25:28.512Z,17.60
2022-10-24T02:28:04.776Z,17.60
2022-10-24T02:30:37.080Z,17.60
2022-10-24T02:33:05.585Z,17.50
2022-10-24T02:35:37.245Z,17.50
2022-10-24T02:38:13.143Z,17.50
2022-10-24T02:40:43.683Z,17.50
2022-10-24T02:43:13.979Z,17.50
2022-10-24T02:45:43.519Z,17.50
2022-10-24T02:48:15.512Z,17.50
2022-10-24T02:50:45.227Z,17.40
2022-10-24T02:53:15.337Z,17.40
2022-10-24T02:55:43.927Z,17.40
2022-10-24T02:58:12.440Z,17.40
2022-10-24T03:00:40.707Z,17.40
2022-10-24T03:03:10.771Z,17.40
2022-10-24T03:05:38.937Z,17.40
2022-10-24T03:08:07.560Z,17.40
2022-10-24T03:10:35.765Z,17.30
2022-10-24T03:13:04.251Z,17.40
2022-10-24T03:15:32.730Z,17.30
2022-10-24T03:18:01.501Z,17.40
2022-10-24T03:20:31.245Z,17.30
2022-10-24T03:22:59.532Z,17.30
2022-10-24T03:25:28.105Z,17.30
2022-10-24T03:27:56.433Z,17.30
2022-10-24T03:30:24.644Z,17.30
2022-10-24T03:32:52.811Z,17.30
2022-10-24T03:35:22.624Z,17.20
2022-10-24T03:37:52.491Z,17.20
2022-10-24T03:40:20.766Z,17.20
2022-10-24T03:42:48.946Z,17.30
2022-10-24T03:45:17.572Z,17.20
2022-10-24T03:47:45.738Z,17.20
2022-10-24T03:50:13.924Z,17.20
2022-10-24T03:52:42.611Z,17.30
2022-10-24T03:55:13.066Z,17.20
2022-10-24T03:57:41.368Z,17.20
2022-10-24T04:00:10.843Z,17.20
2022-10-24T04:02:41.581Z,17.20
2022-10-24T04:05:12.306Z,17.20
2022-10-24T04:07:40.705Z,17.20
2022-10-24T04:10:09.540Z,17.20
2022-10-24T04:12:39.535Z,17.20
2022-10-24T04:15:08.765Z,17.20
2022-10-24T04:17:36.938Z,17.20
2022-10-24T04:20:06.314Z,17.20
2022-10-24T04:22:34.947Z,17.20
2022-10-24T04:25:03.415Z,17.20
2022-10-24T04:27:31.663Z,17.20
2022-10-24T04:30:01.295Z,17.20
2022-10-24T04:32:29.900Z,17.20
2022-10-24T04:34:58.140Z,17.20
2022-10-24T04:37:26.394Z,17.20
2022-10-24T04:39:55.935Z,17.20
2022-10-24T04:42:26.598Z,17.20
2022-10-24T04:44:54.790Z,17.10
2022-10-24T04:47:24.424Z,17.10
2022-10-24T04:49:52.957Z,17.10
2022-10-24T04:52:21.151Z,17.10
2022-10-24T04:54:49.378Z,17.10
2022-10-24T04:57:17.652Z,17.10
2022-10-24T04:59:46.136Z,17.00
2022-10-24T05:02:14.454Z,17.00
2022-10-24T05:04:44.177Z,17.00
2022-10-24T05:07:12.356Z,17.00
2022-10-24T05:09:42.023Z,16.90
2022-10-24T05:12:10.354Z,16.90
2022-10-24T05:14:38.598Z,16.90
2022-10-24T05:17:06.840Z,16.90
2022-10-24T05:19:38.729Z,16.90
2022-10-24T05:22:10.733Z,16.90
2022-10-24T05:24:39.652Z,16.90
2022-10-24T05:27:07.954Z,16.80
2022-10-24T05:29:37.194Z,16.80
2022-10-24T05:32:06.321Z,16.80
2022-10-24T05:34:34.561Z,16.70
2022-10-24T05:37:04.108Z,16.70
2022-10-24T05:39:33.817Z,16.70
2022-10-24T05:42:02.085Z,16.60
2022-10-24T05:44:30.426Z,16.60
2022-10-24T05:46:58.779Z,16.60
2022-10-24T05:49:27.303Z,16.60
2022-10-24T05:51:55.551Z,16.70
2022-10-24T05:54:25.819Z,16.60
2022-10-24T05:56:59.931Z,16.60
2022-10-24T05:59:28.309Z,16.60
2022-10-24T06:01:56.641Z,16.50
2022-10-24T06:04:24.870Z,16.50
2022-10-24T06:06:53.175Z,16.50
2022-10-24T06:09:21.772Z,16.50
2022-10-24T06:11:50.018Z,16.50
2022-10-24T06:14:20.026Z,16.50
2022-10-24T06:16:48.286Z,16.50
2022-10-24T06:19:16.843Z,16.40
2022-10-24T06:21:46.790Z,16.40
2022-10-24T06:24:15.020Z,16.40
2022-10-24T06:26:43.268Z,16.40
2022-10-24T06:29:12.432Z,16.40
2022-10-24T06:31:42.361Z,16.40
2022-10-24T06:34:10.675Z,16.40
2022-10-24T06:39:12.155Z,16.50
2022-10-24T06:41:42.818Z,16.50
2022-10-24T06:44:11.387Z,16.50
2022-10-24T06:46:41.363Z,16.50
2022-10-24T06:49:10.761Z,16.50
2022-10-24T06:51:39.240Z,16.50
2022-10-24T06:54:07.536Z,16.60
2022-10-24T06:56:36.188Z,16.60
2022-10-24T06:59:04.375Z,16.60
2022-10-24T07:01:32.708Z,16.60
2022-10-24T07:04:02.796Z,16.60
2022-10-24T07:06:31.680Z,16.60
2022-10-24T07:09:01.167Z,16.70
2022-10-24T07:11:30.027Z,16.70
2022-10-24T07:14:01.569Z,16.70
2022-10-24T07:16:31.208Z,16.70
2022-10-24T07:19:02.186Z,16.70
2022-10-24T07:21:32.224Z,16.70
2022-10-24T07:24:01.406Z,16.70
2022-10-24T07:26:30.801Z,16.70
2022-10-24T07:31:33.405Z,16.70
2022-10-24T07:34:04.400Z,16.70
2022-10-24T07:36:33.316Z,16.70
2022-10-24T07:39:02.155Z,16.70
2022-10-24T07:41:33.219Z,16.70
2022-10-24T07:44:02.549Z,16.70
2022-10-24T07:46:31.466Z,16.70
2022-10-24T07:48:59.727Z,16.80
2022-10-24T07:51:29.896Z,16.80
2022-10-24T07:53:58.437Z,16.80
2022-10-24T07:56:26.790Z,16.80
2022-10-24T07:58:56.174Z,16.80
2022-10-24T08:01:26.387Z,16.80
2022-10-24T08:03:55.181Z,16.80
2022-10-24T08:06:25.282Z,16.80
2022-10-24T08:08:55.103Z,16.90
2022-10-24T08:11:25.929Z,17.00
2022-10-24T08:13:57.267Z,16.90
2022-10-24T08:16:26.137Z,16.90
2022-10-24T08:18:56.644Z,16.90
2022-10-24T08:21:25.522Z,16.90
2022-10-24T08:23:56.712Z,16.90
2022-10-24T08:26:27.877Z,17.00
2022-10-24T08:28:57.763Z,17.00
2022-10-24T08:31:27.044Z,17.00
2022-10-24T08:33:56.891Z,17.00
2022-10-24T08:36:31.751Z,17.10
2022-10-24T08:39:02.107Z,17.30
2022-10-24T08:41:33.599Z,17.40
2022-10-24T08:44:05.482Z,17.50
2022-10-24T08:46:51.490Z,17.50
2022-10-24T08:49:28.035Z,17.40
2022-10-24T08:52:00.165Z,17.40
2022-10-24T08:54:36.894Z,17.40
2022-10-24T08:57:07.203Z,17.40
2022-10-24T08:59:37.588Z,17.50
2022-10-24T09:02:15.170Z,17.70
2022-10-24T09:04:50.401Z,17.70
2022-10-24T09:07:21.766Z,17.70
2022-10-24T09:09:56.314Z,17.60
2022-10-24T09:12:26.328Z,17.60
2022-10-24T09:14:59.106Z,17.60
2022-10-24T09:17:32.600Z,17.50
2022-10-24T09:20:20.798Z,17.50
2022-10-24T09:22:49.689Z,17.50
2022-10-24T09:25:22.972Z,17.50
2022-10-24T09:27:52.248Z,17.50
2022-10-24T09:30:22.656Z,17.60
2022-10-24T09:32:51.914Z,17.60
2022-10-24T09:35:22.378Z,17.50
2022-10-24T09:37:52.207Z,17.40
2022-10-24T09:40:25.071Z,17.50
2022-10-24T09:42:58.308Z,17.40
2022-10-24T09:45:39.282Z,17.40
2022-10-24T09:48:18.963Z,17.40
2022-10-24T09:50:49.106Z,17.40
2022-10-24T09:53:28.326Z,17.40
2022-10-24T09:56:01.263Z,17.40
2022-10-24T09:58:33.988Z,17.40
2022-10-24T10:01:06.334Z,17.30
2022-10-24T10:03:35.734Z,17.30
2022-10-24T10:06:15.577Z,17.30
2022-10-24T10:08:51.586Z,17.30
2022-10-24T10:11:27.744Z,17.30
2022-10-24T10:13:56.219Z,17.30
2022-10-24T10:16:27.077Z,17.40
2022-10-24T10:19:05.047Z,17.30
2022-10-24T10:21:55.619Z,17.40
2022-10-24T10:24:28.994Z,17.40
2022-10-24T10:26:58.644Z,17.50
2022-10-24T10:29:26.969Z,17.60
2022-10-24T10:32:07.121Z,17.70
2022-10-24T10:34:41.441Z,17.80
2022-10-24T10:37:26.908Z,18.00
2022-10-24T10:40:20.687Z,18.10
2022-10-24T10:43:03.128Z,18.00
2022-10-24T10:45:40.605Z,17.90
2022-10-24T10:48:38.215Z,17.70
2022-10-24T10:51:16.938Z,17.70
2022-10-24T10:53:52.688Z,17.70
2022-10-24T10:56:30.169Z,17.70
2022-10-24T10:59:09.280Z,17.70
2022-10-24T11:01:48.444Z,17.70
2022-10-24T11:04:26.046Z,17.70
2022-10-24T11:09:38.388Z,17.80
2022-10-24T11:12:13.451Z,17.80
2022-10-24T11:14:47.997Z,17.80
2022-10-24T11:17:29.056Z,17.80
2022-10-24T11:20:12.867Z,17.80
2022-10-24T11:22:45.412Z,17.80
2022-10-24T11:25:23.023Z,17.80
2022-10-24T11:28:00.225Z,17.70
2022-10-24T11:30:43.613Z,17.70
2022-10-24T11:33:19.258Z,17.60
2022-10-24T11:36:03.125Z,17.60
2022-10-24T11:38:34.240Z,17.60
2022-10-24T11:41:41.211Z,17.50
2022-10-24T11:44:24.465Z,17.50
2022-10-24T11:47:06.615Z,17.60
2022-10-24T11:49:41.911Z,17.60
2022-10-24T11:52:18.153Z,17.50
2022-10-24T11:54:54.172Z,17.60
2022-10-24T11:57:25.567Z,17.60
2022-10-24T11:59:57.601Z,17.50
2022-10-24T12:02:57.840Z,17.40
2022-10-24T12:05:44.603Z,17.40
2022-10-24T12:08:54.276Z,17.40
2022-10-24T12:11:49.553Z,17.40
2022-10-24T12:14:41.725Z,17.50
2022-10-24T12:17:33.075Z,17.60
2022-10-24T12:20:03.863Z,17.50
2022-10-24T12:22:36.772Z,17.60
2022-10-24T12:25:08.537Z,17.60
2022-10-24T12:27:39.555Z,17.50
2022-10-24T12:30:19.732Z,17.50
2022-10-24T12:32:51.199Z,17.50
2022-10-24T12:35:57.328Z,17.60
2022-10-24T12:39:08.024Z,17.60
2022-10-24T12:41:41.433Z,17.70
2022-10-24T12:44:41.260Z,17.80
2022-10-24T12:47:37.606Z,17.80
2022-10-24T12:50:43.118Z,17.90
2022-10-24T12:53:38.795Z,17.90
2022-10-24T12:56:16.573Z,18.10
2022-10-24T12:58:58.079Z,18.20
2022-10-24T13:01:33.355Z,18.30
2022-10-24T13:04:34.429Z,18.40
2022-10-24T13:07:48.549Z,18.40
2022-10-24T13:10:40.985Z,18.40
2022-10-24T13:13:44.616Z,18.50
2022-10-24T13:16:26.014Z,18.50
2022-10-24T13:19:10.939Z,18.60
2022-10-24T13:21:47.823Z,18.70
2022-10-24T13:24:28.764Z,18.90
2022-10-24T13:27:26.533Z,18.80
2022-10-24T13:30:05.273Z,18.70
2022-10-24T13:32:36.097Z,18.60
2022-10-24T13:35:06.809Z,18.50
2022-10-24T13:37:41.877Z,18.40
2022-10-24T13:40:16.975Z,18.40
2022-10-24T13:42:53.375Z,18.60
2022-10-24T13:45:27.685Z,18.90
2022-10-24T13:48:00.741Z,19.00
2022-10-24T13:50:31.519Z,19.20
2022-10-24T13:53:03.260Z,19.20
2022-10-24T13:55:36.708Z,19.10
2022-10-24T13:58:14.824Z,19.20
2022-10-24T14:00:46.357Z,19.30
2022-10-24T14:03:17.466Z,19.20
2022-10-24T14:05:49.880Z,19.00
2022-10-24T14:08:25.272Z,19.00
2022-10-24T14:10:55.458Z,19.10
2022-10-24T14:13:27.048Z,19.00
2022-10-24T14:15:59.333Z,18.80
2022-10-24T14:18:28.542Z,18.70
2022-10-24T14:20:58.436Z,18.60
2022-10-24T14:23:29.466Z,18.40
2022-10-24T14:26:00.989Z,18.30
2022-10-24T14:28:33.164Z,18.40
2022-10-24T14:31:03.545Z,18.40
2022-10-24T14:33:33.558Z,18.40
2022-10-24T14:36:04.784Z,18.40
2022-10-24T14:38:35.227Z,18.50
2022-10-24T14:41:09.567Z,18.50
2022-10-24T14:43:42.887Z,18.50
2022-10-24T14:46:30.793Z,18.30
2022-10-24T14:49:03.896Z,18.20
2022-10-24T14:51:39.315Z,18.10
2022-10-24T14:54:19.448Z,18.10
2022-10-24T14:56:48.483Z,18.10
2022-10-24T14:59:27.169Z,18.10
2022-10-24T15:01:57.578Z,18.20
2022-10-24T15:04:32.528Z,18.20
2022-10-24T15:07:16.300Z,18.20
2022-10-24T15:09:57.350Z,18.20
2022-10-24T15:12:28.579Z,18.20
2022-10-24T15:15:01.551Z,18.10
2022-10-24T15:17:32.918Z,18.00
2022-10-24T15:20:03.114Z,18.00
2022-10-24T15:22:35.196Z,18.00
2022-10-24T15:25:06.396Z,18.00
2022-10-24T15:27:41.471Z,17.90
2022-10-24T15:30:15.429Z,17.90
2022-10-24T15:32:44.048Z,17.90
2022-10-24T15:35:13.627Z,17.80
2022-10-24T15:37:53.188Z,17.80
2022-10-24T15:40:25.177Z,17.70
2022-10-24T15:42:54.003Z,17.60
2022-10-24T15:45:23.956Z,17.60
2022-10-24T15:47:52.953Z,17.50
2022-10-24T15:52:53.523Z,17.50
2022-10-24T15:55:24.335Z,17.50
2022-10-24T15:57:53.457Z,17.40
2022-10-24T16:00:25.073Z,17.40
2022-10-24T16:02:57.525Z,17.40
2022-10-24T16:05:29.613Z,17.40
2022-10-24T16:07:57.879Z,17.40
2022-10-24T16:10:26.124Z,17.30
2022-10-24T16:12:54.405Z,17.30
2022-10-24T16:15:29.345Z,17.20
2022-10-24T16:17:57.749Z,17.20
2022-10-24T16:20:26.159Z,17.20
2022-10-24T16:22:55.395Z,17.10
2022-10-24T16:25:25.879Z,17.10
2022-10-24T16:27:54.668Z,17.00
2022-10-24T16:30:26.849Z,17.00
2022-10-24T16:32:55.535Z,17.00
2022-10-24T16:35:25.945Z,17.00
2022-10-24T16:37:55.185Z,16.90
2022-10-24T16:40:26.978Z,17.00
2022-10-24T16:42:57.514Z,17.00
2022-10-24T16:45:27.566Z,17.00
2022-10-24T16:47:55.867Z,16.90
2022-10-24T16:50:26.978Z,16.90
2022-10-24T16:52:57.169Z,16.90
2022-10-24T16:55:25.439Z,17.00
2022-10-24T16:57:54.923Z,16.90
2022-10-24T17:00:24.275Z,16.90
2022-10-24T17:02:58.224Z,16.90
2022-10-24T17:05:28.931Z,16.80
2022-10-24T17:07:58.083Z,16.80
2022-10-24T17:10:27.028Z,16.80
2022-10-24T17:12:56.112Z,16.70
2022-10-24T17:15:25.070Z,16.70
2022-10-24T17:17:55.538Z,16.70
2022-10-24T17:20:24.237Z,16.60
2022-10-24T17:22:53.497Z,16.60
2022-10-24T17:25:26.162Z,16.60
2022-10-24T17:27:56.238Z,16.60
2022-10-24T17:30:26.991Z,16.60
2022-10-24T17:32:57.186Z,16.70
2022-10-24T17:35:27.040Z,16.70
2022-10-24T17:38:07.747Z,16.60
2022-10-24T17:40:43.199Z,16.60
2022-10-24T17:43:25.495Z,16.60
2022-10-24T17:45:55.041Z,16.60
2022-10-24T17:48:25.553Z,16.60
2022-10-24T17:50:57.684Z,16.60
2022-10-24T17:53:26.350Z,16.60
2022-10-24T17:55:54.573Z,16.60
2022-10-24T17:58:22.952Z,16.60
2022-10-24T18:00:51.538Z,16.60
2022-10-24T18:03:20.575Z,16.50
2022-10-24T18:05:50.583Z,16.50
2022-10-24T18:08:19.042Z,16.40
2022-10-24T18:10:47.590Z,16.40
2022-10-24T18:13:16.268Z,16.40
2022-10-24T18:15:44.555Z,16.30
2022-10-24T18:18:14.352Z,16.30
2022-10-24T18:20:42.667Z,16.20
2022-10-24T18:23:12.413Z,16.30
2022-10-24T18:25:41.224Z,16.30
2022-10-24T18:28:09.717Z,16.30
2022-10-24T18:30:38.041Z,16.30
2022-10-24T18:33:06.385Z,16.30
2022-10-24T18:35:36.776Z,16.30
2022-10-24T18:38:05.159Z,16.20
2022-10-24T18:40:38.197Z,16.30
2022-10-24T18:43:07.579Z,16.20
2022-10-24T18:45:36.998Z,16.10
2022-10-24T18:48:06.244Z,16.10
2022-10-24T18:50:36.474Z,16.10
2022-10-24T18:53:08.356Z,16.00
2022-10-24T18:55:38.951Z,16.00
2022-10-24T18:58:16.376Z,16.00
2022-10-24T19:00:45.209Z,16.10
2022-10-24T19:03:22.943Z,16.00
2022-10-24T19:05:56.673Z,16.00
2022-10-24T19:08:26.840Z,16.00
2022-10-24T19:10:57.421Z,16.00
2022-10-24T19:13:26.655Z,16.00
2022-10-24T19:15:58.671Z,16.00
2022-10-24T19:18:30.079Z,16.00
2022-10-24T19:20:58.432Z,16.00
2022-10-24T19:23:27.020Z,16.00
2022-10-24T19:25:58.816Z,16.00
2022-10-24T19:28:27.176Z,16.00
2022-10-24T19:30:55.614Z,16.00
2022-10-24T19:33:28.051Z,16.00
2022-10-24T19:35:56.508Z,16.00
2022-10-24T19:38:26.130Z,16.00
2022-10-24T19:40:55.889Z,16.00
2022-10-24T19:43:27.345Z,16.00
2022-10-24T19:48:49.537Z,16.00
2022-10-24T19:51:23.193Z,16.00
2022-10-24T19:53:56.845Z,16.00
2022-10-24T19:56:29.171Z,15.90
2022-10-24T19:58:59.215Z,15.90
2022-10-24T20:01:32.381Z,15.90
2022-10-24T20:04:02.396Z,15.90
2022-10-24T20:06:30.755Z,16.00
2022-10-24T20:08:59.141Z,15.90
2022-10-24T20:11:27.705Z,15.90
2022-10-24T20:13:55.965Z,15.80
2022-10-24T20:16:25.642Z,15.80
2022-10-24T20:18:54.171Z,15.70
2022-10-24T20:21:23.582Z,15.80
2022-10-24T20:23:52.768Z,15.80
2022-10-24T20:26:23.926Z,15.80
2022-10-24T20:28:53.855Z,15.80
2022-10-24T20:31:24.788Z,15.80
2022-10-24T20:34:06.808Z,15.80
2022-10-24T20:36:39.864Z,15.70
2022-10-24T20:39:10.159Z,15.70
2022-10-24T20:41:39.741Z,15.60
2022-10-24T20:44:08.820Z,15.60
2022-10-24T20:46:37.917Z,15.70
2022-10-24T20:49:08.737Z,15.60
2022-10-24T20:51:37.687Z,15.60
2022-10-24T20:54:10.803Z,15.70
2022-10-24T20:56:42.315Z,15.70
2022-10-24T20:59:14.577Z,15.70
2022-10-24T21:01:44.380Z,15.70
2022-10-24T21:04:17.104Z,15.70
2022-10-24T21:06:48.459Z,15.70
2022-10-24T21:09:18.905Z,15.60
2022-10-24T21:11:47.393Z,15.60
2022-10-24T21:14:18.032Z,15.60
2022-10-24T21:16:46.303Z,15.50
2022-10-24T21:19:16.444Z,15.60
2022-10-24T21:21:44.659Z,15.50
2022-10-24T21:24:15.748Z,15.60
2022-10-24T21:26:44.076Z,15.50
2022-10-24T21:29:32.145Z,15.50
2022-10-24T21:32:01.040Z,15.50
2022-10-24T21:34:34.422Z,15.50
2022-10-24T21:37:04.033Z,15.50
2022-10-24T21:39:32.659Z,15.50
2022-10-24T21:42:00.935Z,15.50
2022-10-24T21:44:29.494Z,15.50
2022-10-24T21:46:57.775Z,15.40
2022-10-24T21:49:26.570Z,15.50
2022-10-24T21:51:56.991Z,15.40
2022-10-24T21:54:26.812Z,15.40
2022-10-24T21:56:55.050Z,15.40
2022-10-24T21:59:24.074Z,15.40
2022-10-24T22:01:53.779Z,15.40
2022-10-24T22:04:23.356Z,15.40
2022-10-24T22:06:52.517Z,15.30
2022-10-24T22:09:25.188Z,15.40
2022-10-24T22:11:58.186Z,15.30
2022-10-24T22:14:27.504Z,15.40
2022-10-24T22:16:58.986Z,15.30
2022-10-24T22:19:27.321Z,15.30
2022-10-24T22:21:55.534Z,15.30
2022-10-24T22:24:25.719Z,15.40
2022-10-24T22:26:54.360Z,15.30
2022-10-24T22:29:24.297Z,15.30
2022-10-24T22:31:54.668Z,15.30
2022-10-24T22:34:25.448Z,15.30
2022-10-24T22:37:12.988Z,15.30
2022-10-24T22:39:43.425Z,15.30
2022-10-24T22:42:15.950Z,15.30
2022-10-24T22:44:46.497Z,15.30
2022-10-24T22:47:41.709Z,15.30
2022-10-24T22:50:21.707Z,15.30
2022-10-24T22:52:50.710Z,15.20
2022-10-24T22:55:29.260Z,15.20
2022-10-24T22:57:58.037Z,15.20
2022-10-24T23:00:27.061Z,15.20
2022-10-24T23:03:02.535Z,15.20
2022-10-24T23:05:37.191Z,15.20
2022-10-24T23:08:23.254Z,15.20
2022-10-24T23:10:53.458Z,15.20
2022-10-24T23:13:22.125Z,15.20
2022-10-24T23:15:51.333Z,15.20
2022-10-24T23:18:21.447Z,15.20
2022-10-24T23:20:57.622Z,15.20
2022-10-24T23:23:29.101Z,15.20
2022-10-24T23:26:09.277Z,15.20
2022-10-24T23:28:47.641Z,15.20
2022-10-24T23:31:16.397Z,15.20
2022-10-24T23:33:45.347Z,15.20
2022-10-24T23:36:23.925Z,15.20
2022-10-24T23:38:55.086Z,15.20
2022-10-24T23:41:25.790Z,15.20
2022-10-24T23:43:54.553Z,15.10
2022-10-24T23:46:27.533Z,15.10
2022-10-24T23:49:21.581Z,15.10
2022-10-24T23:51:59.059Z,15.10
2022-10-24T23:54:30.571Z,15.10
2022-10-24T23:57:00.900Z,15.10
2022-10-24T23:59:29.253Z,15.10
